sensor_id;sensor_type;location;lat;lon;timestamp;P1;durP1;ratioP1;P2;durP2;ratioP2
9420;SDS011;4749;51.398;5.466;2023-02-28T00:01:33;8.90;;;6.50;;
9420;SDS011;4749;51.398;5.466;2023-02-28T00:04:01;9.20;;;6.57;;
9420;SDS011;4749;51.398;5.466;2023-02-28T00:06:29;10.27;;;7.13;;
9420;SDS011;4749;51.398;5.466;2023-02-28T00:09:02;8.40;;;6.30;;
9420;SDS011;4749;51.398;5.466;2023-02-28T00:11:37;9.87;;;6.07;;
9420;SDS011;4749;51.398;5.466;2023-02-28T00:14:04;7.33;;;5.83;;
9420;SDS011;4749;51.398;5.466;2023-02-28T00:16:34;10.07;;;6.00;;
9420;SDS011;4749;51.398;5.466;2023-02-28T00:19:02;8.73;;;6.70;;
9420;SDS011;4749;51.398;5.466;2023-02-28T00:21:30;8.60;;;6.13;;
9420;SDS011;4749;51.398;5.466;2023-02-28T00:23:58;10.43;;;7.07;;
9420;SDS011;4749;51.398;5.466;2023-02-28T00:26:25;11.93;;;6.60;;
9420;SDS011;4749;51.398;5.466;2023-02-28T00:29:15;10.23;;;7.27;;
9420;SDS011;4749;51.398;5.466;2023-02-28T00:31:45;10.63;;;7.97;;
9420;SDS011;4749;51.398;5.466;2023-02-28T00:34:37;10.50;;;7.93;;
9420;SDS011;4749;51.398;5.466;2023-02-28T00:37:14;9.93;;;8.27;;
9420;SDS011;4749;51.398;5.466;2023-02-28T00:40:34;11.83;;;7.57;;
9420;SDS011;4749;51.398;5.466;2023-02-28T00:43:05;13.13;;;7.77;;
9420;SDS011;4749;51.398;5.466;2023-02-28T00:46:02;9.63;;;7.17;;
9420;SDS011;4749;51.398;5.466;2023-02-28T00:48:34;11.53;;;7.70;;
9420;SDS011;4749;51.398;5.466;2023-02-28T00:51:02;9.87;;;7.90;;
9420;SDS011;4749;51.398;5.466;2023-02-28T00:53:33;12.23;;;8.33;;
9420;SDS011;4749;51.398;5.466;2023-02-28T00:56:15;9.53;;;7.10;;
9420;SDS011;4749;51.398;5.466;2023-02-28T00:58:57;13.37;;;7.67;;
9420;SDS011;4749;51.398;5.466;2023-02-28T01:01:45;10.13;;;7.50;;
9420;SDS011;4749;51.398;5.466;2023-02-28T01:04:37;9.17;;;7.30;;
9420;SDS011;4749;51.398;5.466;2023-02-28T01:07:30;8.90;;;7.03;;
9420;SDS011;4749;51.398;5.466;2023-02-28T01:10:03;9.13;;;7.53;;
9420;SDS011;4749;51.398;5.466;2023-02-28T01:12:37;8.60;;;7.40;;
9420;SDS011;4749;51.398;5.466;2023-02-28T01:15:06;9.93;;;7.57;;
9420;SDS011;4749;51.398;5.466;2023-02-28T01:17:37;9.80;;;7.97;;
9420;SDS011;4749;51.398;5.466;2023-02-28T01:20:08;8.83;;;7.43;;
9420;SDS011;4749;51.398;5.466;2023-02-28T01:22:45;11.07;;;7.20;;
9420;SDS011;4749;51.398;5.466;2023-02-28T01:25:22;9.10;;;7.47;;
9420;SDS011;4749;51.398;5.466;2023-02-28T01:28:10;10.50;;;7.60;;
9420;SDS011;4749;51.398;5.466;2023-02-28T01:30:38;9.10;;;7.30;;
9420;SDS011;4749;51.398;5.466;2023-02-28T01:33:05;10.40;;;7.50;;
9420;SDS011;4749;51.398;5.466;2023-02-28T01:35:33;11.33;;;7.80;;
9420;SDS011;4749;51.398;5.466;2023-02-28T01:38:02;10.00;;;7.90;;
9420;SDS011;4749;51.398;5.466;2023-02-28T01:40:48;8.67;;;6.63;;
9420;SDS011;4749;51.398;5.466;2023-02-28T01:43:32;8.73;;;6.70;;
9420;SDS011;4749;51.398;5.466;2023-02-28T01:46:44;10.53;;;6.80;;
9420;SDS011;4749;51.398;5.466;2023-02-28T01:49:12;8.37;;;7.23;;
9420;SDS011;4749;51.398;5.466;2023-02-28T01:52:06;9.87;;;7.63;;
9420;SDS011;4749;51.398;5.466;2023-02-28T01:54:53;10.27;;;7.10;;
9420;SDS011;4749;51.398;5.466;2023-02-28T01:57:48;11.63;;;6.83;;
9420;SDS011;4749;51.398;5.466;2023-02-28T02:00:44;10.00;;;7.07;;
9420;SDS011;4749;51.398;5.466;2023-02-28T02:03:28;10.87;;;7.17;;
9420;SDS011;4749;51.398;5.466;2023-02-28T02:06:29;11.40;;;7.17;;
9420;SDS011;4749;51.398;5.466;2023-02-28T02:09:10;11.63;;;7.10;;
9420;SDS011;4749;51.398;5.466;2023-02-28T02:11:39;8.10;;;6.67;;
9420;SDS011;4749;51.398;5.466;2023-02-28T02:32:18;8.10;;;6.83;;
9420;SDS011;4749;51.398;5.466;2023-02-28T02:35:11;8.73;;;6.57;;
9420;SDS011;4749;51.398;5.466;2023-02-28T02:43:37;11.53;;;6.90;;
9420;SDS011;4749;51.398;5.466;2023-02-28T02:46:18;9.40;;;7.30;;
9420;SDS011;4749;51.398;5.466;2023-02-28T02:48:55;8.10;;;6.70;;
9420;SDS011;4749;51.398;5.466;2023-02-28T02:51:28;9.03;;;7.23;;
9420;SDS011;4749;51.398;5.466;2023-02-28T02:54:10;9.10;;;7.07;;
9420;SDS011;4749;51.398;5.466;2023-02-28T02:56:47;9.40;;;6.83;;
9420;SDS011;4749;51.398;5.466;2023-02-28T02:59:20;9.90;;;7.10;;
9420;SDS011;4749;51.398;5.466;2023-02-28T03:01:51;9.20;;;6.97;;
9420;SDS011;4749;51.398;5.466;2023-02-28T03:04:31;9.47;;;7.00;;
9420;SDS011;4749;51.398;5.466;2023-02-28T03:07:05;12.00;;;7.63;;
9420;SDS011;4749;51.398;5.466;2023-02-28T03:09:49;9.37;;;6.70;;
9420;SDS011;4749;51.398;5.466;2023-02-28T03:12:22;8.27;;;6.50;;
9420;SDS011;4749;51.398;5.466;2023-02-28T03:15:22;10.90;;;7.27;;
9420;SDS011;4749;51.398;5.466;2023-02-28T03:18:04;11.47;;;7.30;;
9420;SDS011;4749;51.398;5.466;2023-02-28T03:26:31;9.93;;;7.43;;
9420;SDS011;4749;51.398;5.466;2023-02-28T03:29:28;9.83;;;6.73;;
9420;SDS011;4749;51.398;5.466;2023-02-28T03:36:15;11.13;;;6.87;;
9420;SDS011;4749;51.398;5.466;2023-02-28T03:39:35;9.67;;;7.20;;
9420;SDS011;4749;51.398;5.466;2023-02-28T03:43:01;8.77;;;6.73;;
9420;SDS011;4749;51.398;5.466;2023-02-28T03:45:45;11.13;;;7.47;;
9420;SDS011;4749;51.398;5.466;2023-02-28T03:48:18;8.47;;;6.90;;
9420;SDS011;4749;51.398;5.466;2023-02-28T03:51:09;9.97;;;6.83;;
9420;SDS011;4749;51.398;5.466;2023-02-28T03:53:50;14.13;;;7.00;;
9420;SDS011;4749;51.398;5.466;2023-02-28T03:56:41;7.53;;;6.50;;
9420;SDS011;4749;51.398;5.466;2023-02-28T03:59:21;9.03;;;6.43;;
9420;SDS011;4749;51.398;5.466;2023-02-28T04:01:57;8.97;;;6.27;;
9420;SDS011;4749;51.398;5.466;2023-02-28T04:04:25;11.33;;;7.57;;
9420;SDS011;4749;51.398;5.466;2023-02-28T04:06:53;10.53;;;7.40;;
9420;SDS011;4749;51.398;5.466;2023-02-28T04:09:34;8.23;;;6.23;;
9420;SDS011;4749;51.398;5.466;2023-02-28T04:12:02;9.70;;;6.87;;
9420;SDS011;4749;51.398;5.466;2023-02-28T04:14:29;9.63;;;6.63;;
9420;SDS011;4749;51.398;5.466;2023-02-28T04:16:57;12.17;;;6.50;;
9420;SDS011;4749;51.398;5.466;2023-02-28T04:19:24;13.43;;;6.80;;
9420;SDS011;4749;51.398;5.466;2023-02-28T04:21:51;9.17;;;6.30;;
9420;SDS011;4749;51.398;5.466;2023-02-28T04:24:21;10.33;;;6.80;;
9420;SDS011;4749;51.398;5.466;2023-02-28T04:26:51;8.37;;;5.70;;
9420;SDS011;4749;51.398;5.466;2023-02-28T04:29:26;8.93;;;6.20;;
9420;SDS011;4749;51.398;5.466;2023-02-28T04:31:57;7.37;;;5.93;;
9420;SDS011;4749;51.398;5.466;2023-02-28T04:34:27;9.27;;;5.90;;
9420;SDS011;4749;51.398;5.466;2023-02-28T04:36:56;8.67;;;5.83;;
9420;SDS011;4749;51.398;5.466;2023-02-28T04:39:38;8.57;;;5.53;;
9420;SDS011;4749;51.398;5.466;2023-02-28T04:42:06;8.93;;;5.60;;
9420;SDS011;4749;51.398;5.466;2023-02-28T04:44:33;8.50;;;5.50;;
9420;SDS011;4749;51.398;5.466;2023-02-28T04:47:00;7.40;;;5.70;;
9420;SDS011;4749;51.398;5.466;2023-02-28T04:49:27;7.30;;;5.77;;
9420;SDS011;4749;51.398;5.466;2023-02-28T04:51:55;7.77;;;5.20;;
9420;SDS011;4749;51.398;5.466;2023-02-28T04:54:22;9.93;;;5.70;;
9420;SDS011;4749;51.398;5.466;2023-02-28T04:56:49;6.97;;;4.93;;
9420;SDS011;4749;51.398;5.466;2023-02-28T04:59:17;8.27;;;5.10;;
9420;SDS011;4749;51.398;5.466;2023-02-28T05:01:45;9.00;;;5.57;;
9420;SDS011;4749;51.398;5.466;2023-02-28T05:04:15;6.97;;;5.17;;
9420;SDS011;4749;51.398;5.466;2023-02-28T05:06:43;9.20;;;5.23;;
9420;SDS011;4749;51.398;5.466;2023-02-28T05:09:10;7.67;;;5.17;;
9420;SDS011;4749;51.398;5.466;2023-02-28T05:11:38;6.47;;;4.77;;
9420;SDS011;4749;51.398;5.466;2023-02-28T05:14:09;5.57;;;4.53;;
9420;SDS011;4749;51.398;5.466;2023-02-28T05:16:40;7.37;;;4.73;;
9420;SDS011;4749;51.398;5.466;2023-02-28T05:19:08;6.27;;;4.67;;
9420;SDS011;4749;51.398;5.466;2023-02-28T05:21:48;8.63;;;5.53;;
9420;SDS011;4749;51.398;5.466;2023-02-28T05:24:18;6.77;;;4.57;;
9420;SDS011;4749;51.398;5.466;2023-02-28T05:26:50;10.67;;;5.87;;
9420;SDS011;4749;51.398;5.466;2023-02-28T05:29:19;7.23;;;4.90;;
9420;SDS011;4749;51.398;5.466;2023-02-28T05:31:47;6.63;;;4.77;;
9420;SDS011;4749;51.398;5.466;2023-02-28T05:34:14;7.27;;;4.80;;
9420;SDS011;4749;51.398;5.466;2023-02-28T05:36:45;7.53;;;5.20;;
9420;SDS011;4749;51.398;5.466;2023-02-28T05:39:12;8.53;;;4.77;;
9420;SDS011;4749;51.398;5.466;2023-02-28T05:41:42;7.43;;;4.70;;
9420;SDS011;4749;51.398;5.466;2023-02-28T05:44:10;8.10;;;5.40;;
9420;SDS011;4749;51.398;5.466;2023-02-28T05:46:38;6.60;;;4.63;;
9420;SDS011;4749;51.398;5.466;2023-02-28T05:49:06;6.87;;;4.70;;
9420;SDS011;4749;51.398;5.466;2023-02-28T05:51:33;6.00;;;4.60;;
9420;SDS011;4749;51.398;5.466;2023-02-28T05:54:03;6.33;;;4.43;;
9420;SDS011;4749;51.398;5.466;2023-02-28T05:56:30;7.87;;;5.10;;
9420;SDS011;4749;51.398;5.466;2023-02-28T05:58:58;8.70;;;5.17;;
9420;SDS011;4749;51.398;5.466;2023-02-28T06:01:38;8.30;;;5.20;;
9420;SDS011;4749;51.398;5.466;2023-02-28T06:04:09;9.03;;;4.97;;
9420;SDS011;4749;51.398;5.466;2023-02-28T06:06:54;6.13;;;5.07;;
9420;SDS011;4749;51.398;5.466;2023-02-28T06:09:23;6.27;;;4.57;;
9420;SDS011;4749;51.398;5.466;2023-02-28T06:11:51;7.73;;;4.63;;
9420;SDS011;4749;51.398;5.466;2023-02-28T06:14:19;6.27;;;4.90;;
9420;SDS011;4749;51.398;5.466;2023-02-28T06:16:47;6.63;;;4.73;;
9420;SDS011;4749;51.398;5.466;2023-02-28T06:19:15;8.03;;;5.07;;
9420;SDS011;4749;51.398;5.466;2023-02-28T06:21:42;8.93;;;5.23;;
9420;SDS011;4749;51.398;5.466;2023-02-28T06:24:10;7.30;;;4.73;;
9420;SDS011;4749;51.398;5.466;2023-02-28T06:26:37;7.57;;;4.43;;
9420;SDS011;4749;51.398;5.466;2023-02-28T06:29:05;9.17;;;5.27;;
9420;SDS011;4749;51.398;5.466;2023-02-28T06:31:32;7.90;;;4.90;;
9420;SDS011;4749;51.398;5.466;2023-02-28T06:33:59;7.67;;;4.67;;
9420;SDS011;4749;51.398;5.466;2023-02-28T06:36:27;8.10;;;5.17;;
9420;SDS011;4749;51.398;5.466;2023-02-28T06:38:54;7.67;;;4.73;;
9420;SDS011;4749;51.398;5.466;2023-02-28T06:41:25;6.13;;;4.80;;
9420;SDS011;4749;51.398;5.466;2023-02-28T06:43:54;8.67;;;4.83;;
9420;SDS011;4749;51.398;5.466;2023-02-28T06:46:25;6.17;;;4.47;;
9420;SDS011;4749;51.398;5.466;2023-02-28T06:49:02;6.50;;;4.70;;
9420;SDS011;4749;51.398;5.466;2023-02-28T06:51:49;5.77;;;4.73;;
9420;SDS011;4749;51.398;5.466;2023-02-28T06:54:17;9.50;;;4.70;;
9420;SDS011;4749;51.398;5.466;2023-02-28T06:56:48;5.33;;;4.23;;
9420;SDS011;4749;51.398;5.466;2023-02-28T06:59:21;7.30;;;4.40;;
9420;SDS011;4749;51.398;5.466;2023-02-28T07:01:51;7.97;;;4.20;;
9420;SDS011;4749;51.398;5.466;2023-02-28T07:04:21;7.40;;;5.07;;
9420;SDS011;4749;51.398;5.466;2023-02-28T07:07:14;6.53;;;4.13;;
9420;SDS011;4749;51.398;5.466;2023-02-28T07:09:42;5.87;;;4.13;;
9420;SDS011;4749;51.398;5.466;2023-02-28T07:12:12;6.00;;;4.23;;
9420;SDS011;4749;51.398;5.466;2023-02-28T07:14:46;7.60;;;4.00;;
9420;SDS011;4749;51.398;5.466;2023-02-28T07:17:47;5.73;;;4.10;;
9420;SDS011;4749;51.398;5.466;2023-02-28T07:21:49;6.50;;;3.90;;
9420;SDS011;4749;51.398;5.466;2023-02-28T07:24:12;7.23;;;3.80;;
9420;SDS011;4749;51.398;5.466;2023-02-28T07:28:07;5.87;;;3.87;;
9420;SDS011;4749;51.398;5.466;2023-02-28T07:31:07;5.00;;;3.43;;
9420;SDS011;4749;51.398;5.466;2023-02-28T07:34:06;4.87;;;3.10;;
9420;SDS011;4749;51.398;5.466;2023-02-28T07:36:35;4.63;;;3.37;;
9420;SDS011;4749;51.398;5.466;2023-02-28T07:39:05;7.30;;;3.90;;
9420;SDS011;4749;51.398;5.466;2023-02-28T07:41:32;4.47;;;3.20;;
9420;SDS011;4749;51.398;5.466;2023-02-28T07:44:00;4.53;;;2.90;;
9420;SDS011;4749;51.398;5.466;2023-02-28T07:46:31;3.73;;;2.57;;
9420;SDS011;4749;51.398;5.466;2023-02-28T07:49:03;4.73;;;2.67;;
9420;SDS011;4749;51.398;5.466;2023-02-28T07:51:42;4.67;;;3.10;;
9420;SDS011;4749;51.398;5.466;2023-02-28T07:54:09;3.70;;;2.80;;
9420;SDS011;4749;51.398;5.466;2023-02-28T07:56:36;4.00;;;3.03;;
9420;SDS011;4749;51.398;5.466;2023-02-28T07:59:04;3.53;;;2.60;;
9420;SDS011;4749;51.398;5.466;2023-02-28T08:01:31;4.60;;;3.13;;
9420;SDS011;4749;51.398;5.466;2023-02-28T08:03:59;4.33;;;2.43;;
9420;SDS011;4749;51.398;5.466;2023-02-28T08:06:26;3.83;;;2.63;;
9420;SDS011;4749;51.398;5.466;2023-02-28T08:08:53;3.63;;;2.50;;
9420;SDS011;4749;51.398;5.466;2023-02-28T08:11:22;4.83;;;2.40;;
9420;SDS011;4749;51.398;5.466;2023-02-28T08:13:50;2.97;;;2.30;;
9420;SDS011;4749;51.398;5.466;2023-02-28T08:16:21;6.13;;;2.50;;
9420;SDS011;4749;51.398;5.466;2023-02-28T08:18:51;3.87;;;2.10;;
9420;SDS011;4749;51.398;5.466;2023-02-28T08:21:22;3.90;;;2.17;;
9420;SDS011;4749;51.398;5.466;2023-02-28T08:23:51;3.87;;;2.17;;
9420;SDS011;4749;51.398;5.466;2023-02-28T08:26:20;3.00;;;2.30;;
9420;SDS011;4749;51.398;5.466;2023-02-28T08:28:51;5.47;;;2.93;;
9420;SDS011;4749;51.398;5.466;2023-02-28T08:31:18;2.87;;;2.27;;
9420;SDS011;4749;51.398;5.466;2023-02-28T08:33:49;3.53;;;2.07;;
9420;SDS011;4749;51.398;5.466;2023-02-28T08:36:18;3.07;;;1.97;;
9420;SDS011;4749;51.398;5.466;2023-02-28T08:38:47;3.47;;;2.20;;
9420;SDS011;4749;51.398;5.466;2023-02-28T08:41:14;4.57;;;1.90;;
9420;SDS011;4749;51.398;5.466;2023-02-28T08:43:44;4.03;;;1.80;;
9420;SDS011;4749;51.398;5.466;2023-02-28T08:46:12;2.93;;;1.97;;
9420;SDS011;4749;51.398;5.466;2023-02-28T08:48:40;3.83;;;1.93;;
9420;SDS011;4749;51.398;5.466;2023-02-28T08:51:08;3.03;;;2.00;;
9420;SDS011;4749;51.398;5.466;2023-02-28T08:53:44;4.07;;;1.93;;
9420;SDS011;4749;51.398;5.466;2023-02-28T08:56:12;2.30;;;1.80;;
9420;SDS011;4749;51.398;5.466;2023-02-28T08:58:42;4.90;;;1.90;;
9420;SDS011;4749;51.398;5.466;2023-02-28T09:01:15;3.43;;;1.90;;
9420;SDS011;4749;51.398;5.466;2023-02-28T09:03:45;4.50;;;1.70;;
9420;SDS011;4749;51.398;5.466;2023-02-28T09:06:14;2.90;;;2.10;;
9420;SDS011;4749;51.398;5.466;2023-02-28T09:08:43;3.53;;;1.70;;
9420;SDS011;4749;51.398;5.466;2023-02-28T09:11:11;2.83;;;1.67;;
9420;SDS011;4749;51.398;5.466;2023-02-28T09:13:41;3.57;;;2.00;;
9420;SDS011;4749;51.398;5.466;2023-02-28T09:16:10;1.90;;;1.50;;
9420;SDS011;4749;51.398;5.466;2023-02-28T09:18:40;2.10;;;1.30;;
9420;SDS011;4749;51.398;5.466;2023-02-28T09:21:09;2.13;;;1.60;;
9420;SDS011;4749;51.398;5.466;2023-02-28T09:23:41;1.80;;;1.37;;
9420;SDS011;4749;51.398;5.466;2023-02-28T09:26:14;1.50;;;1.27;;
9420;SDS011;4749;51.398;5.466;2023-02-28T09:28:43;1.93;;;1.30;;
9420;SDS011;4749;51.398;5.466;2023-02-28T09:31:16;2.47;;;1.33;;
9420;SDS011;4749;51.398;5.466;2023-02-28T09:33:50;1.93;;;1.30;;
9420;SDS011;4749;51.398;5.466;2023-02-28T09:36:21;1.70;;;1.57;;
9420;SDS011;4749;51.398;5.466;2023-02-28T09:38:59;2.93;;;1.83;;
9420;SDS011;4749;51.398;5.466;2023-02-28T09:41:27;3.60;;;1.50;;
9420;SDS011;4749;51.398;5.466;2023-02-28T09:52:54;1.57;;;1.20;;
9420;SDS011;4749;51.398;5.466;2023-02-28T09:55:26;2.07;;;1.50;;
9420;SDS011;4749;51.398;5.466;2023-02-28T09:58:20;2.30;;;1.33;;
9420;SDS011;4749;51.398;5.466;2023-02-28T10:01:07;1.90;;;1.33;;
9420;SDS011;4749;51.398;5.466;2023-02-28T10:04:03;2.83;;;1.30;;
9420;SDS011;4749;51.398;5.466;2023-02-28T10:07:17;1.50;;;1.00;;
9420;SDS011;4749;51.398;5.466;2023-02-28T10:10:23;1.57;;;1.23;;
9420;SDS011;4749;51.398;5.466;2023-02-28T10:13:00;1.23;;;1.13;;
9420;SDS011;4749;51.398;5.466;2023-02-28T10:15:31;2.53;;;1.40;;
9420;SDS011;4749;51.398;5.466;2023-02-28T10:18:02;2.27;;;1.40;;
9420;SDS011;4749;51.398;5.466;2023-02-28T10:20:39;1.87;;;1.20;;
9420;SDS011;4749;51.398;5.466;2023-02-28T10:25:53;2.40;;;1.40;;
9420;SDS011;4749;51.398;5.466;2023-02-28T10:28:28;2.50;;;1.37;;
9420;SDS011;4749;51.398;5.466;2023-02-28T10:30:58;2.20;;;1.37;;
9420;SDS011;4749;51.398;5.466;2023-02-28T10:33:31;2.33;;;1.53;;
9420;SDS011;4749;51.398;5.466;2023-02-28T10:36:01;1.40;;;1.10;;
9420;SDS011;4749;51.398;5.466;2023-02-28T10:38:37;1.60;;;1.20;;
9420;SDS011;4749;51.398;5.466;2023-02-28T10:41:16;2.20;;;1.33;;
9420;SDS011;4749;51.398;5.466;2023-02-28T10:44:12;2.33;;;1.40;;
9420;SDS011;4749;51.398;5.466;2023-02-28T10:46:48;2.40;;;1.33;;
9420;SDS011;4749;51.398;5.466;2023-02-28T10:49:26;1.80;;;1.10;;
9420;SDS011;4749;51.398;5.466;2023-02-28T10:51:59;2.23;;;1.30;;
9420;SDS011;4749;51.398;5.466;2023-02-28T10:54:31;1.63;;;1.20;;
9420;SDS011;4749;51.398;5.466;2023-02-28T10:57:05;1.83;;;1.40;;
9420;SDS011;4749;51.398;5.466;2023-02-28T10:59:44;2.20;;;1.30;;
9420;SDS011;4749;51.398;5.466;2023-02-28T11:02:36;2.63;;;1.30;;
9420;SDS011;4749;51.398;5.466;2023-02-28T11:05:25;1.43;;;1.20;;
9420;SDS011;4749;51.398;5.466;2023-02-28T11:10:38;2.40;;;1.13;;
9420;SDS011;4749;51.398;5.466;2023-02-28T11:13:16;1.70;;;1.20;;
9420;SDS011;4749;51.398;5.466;2023-02-28T11:15:55;1.77;;;1.20;;
9420;SDS011;4749;51.398;5.466;2023-02-28T11:20:59;2.20;;;1.30;;
9420;SDS011;4749;51.398;5.466;2023-02-28T11:23:31;2.23;;;1.30;;
9420;SDS011;4749;51.398;5.466;2023-02-28T11:26:03;2.20;;;1.50;;
9420;SDS011;4749;51.398;5.466;2023-02-28T11:36:27;4.90;;;1.60;;
9420;SDS011;4749;51.398;5.466;2023-02-28T11:39:04;1.80;;;1.43;;
9420;SDS011;4749;51.398;5.466;2023-02-28T11:52:38;2.60;;;1.43;;
9420;SDS011;4749;51.398;5.466;2023-02-28T11:58:04;6.23;;;1.93;;
9420;SDS011;4749;51.398;5.466;2023-02-28T12:01:15;3.37;;;1.43;;
9420;SDS011;4749;51.398;5.466;2023-02-28T12:07:20;2.60;;;1.60;;
9420;SDS011;4749;51.398;5.466;2023-02-28T12:10:22;2.73;;;1.40;;
9420;SDS011;4749;51.398;5.466;2023-02-28T12:12:56;3.13;;;1.50;;
9420;SDS011;4749;51.398;5.466;2023-02-28T12:18:42;3.17;;;1.50;;
9420;SDS011;4749;51.398;5.466;2023-02-28T12:24:52;2.60;;;1.67;;
9420;SDS011;4749;51.398;5.466;2023-02-28T12:27:40;1.87;;;1.43;;
9420;SDS011;4749;51.398;5.466;2023-02-28T12:30:22;1.67;;;1.43;;
9420;SDS011;4749;51.398;5.466;2023-02-28T12:33:05;2.63;;;1.60;;
9420;SDS011;4749;51.398;5.466;2023-02-28T12:38:24;2.00;;;1.67;;
9420;SDS011;4749;51.398;5.466;2023-02-28T12:41:18;4.23;;;1.93;;
9420;SDS011;4749;51.398;5.466;2023-02-28T12:44:11;2.63;;;1.77;;
9420;SDS011;4749;51.398;5.466;2023-02-28T12:46:54;2.27;;;1.90;;
9420;SDS011;4749;51.398;5.466;2023-02-28T12:49:29;3.67;;;1.57;;
9420;SDS011;4749;51.398;5.466;2023-02-28T12:52:18;2.30;;;1.70;;
9420;SDS011;4749;51.398;5.466;2023-02-28T13:07:12;2.10;;;1.57;;
9420;SDS011;4749;51.398;5.466;2023-02-28T13:09:54;2.90;;;1.70;;
9420;SDS011;4749;51.398;5.466;2023-02-28T13:12:24;1.50;;;1.27;;
9420;SDS011;4749;51.398;5.466;2023-02-28T13:15:02;2.43;;;1.70;;
9420;SDS011;4749;51.398;5.466;2023-02-28T13:18:03;1.77;;;1.57;;
9420;SDS011;4749;51.398;5.466;2023-02-28T13:20:34;4.27;;;1.63;;
9420;SDS011;4749;51.398;5.466;2023-02-28T13:24:36;2.20;;;1.60;;
9420;SDS011;4749;51.398;5.466;2023-02-28T13:26:18;2.57;;;1.60;;
9420;SDS011;4749;51.398;5.466;2023-02-28T13:31:21;3.50;;;1.73;;
9420;SDS011;4749;51.398;5.466;2023-02-28T13:36:25;1.80;;;1.47;;
9420;SDS011;4749;51.398;5.466;2023-02-28T13:38:58;2.87;;;1.50;;
9420;SDS011;4749;51.398;5.466;2023-02-28T13:41:49;1.90;;;1.40;;
9420;SDS011;4749;51.398;5.466;2023-02-28T13:44:18;2.80;;;1.67;;
9420;SDS011;4749;51.398;5.466;2023-02-28T13:51:55;2.53;;;1.53;;
9420;SDS011;4749;51.398;5.466;2023-02-28T13:54:58;3.37;;;1.97;;
9420;SDS011;4749;51.398;5.466;2023-02-28T14:01:00;2.10;;;1.57;;
9420;SDS011;4749;51.398;5.466;2023-02-28T14:04:14;1.97;;;1.40;;
9420;SDS011;4749;51.398;5.466;2023-02-28T14:06:51;2.07;;;1.80;;
9420;SDS011;4749;51.398;5.466;2023-02-28T14:11:56;3.80;;;1.93;;
9420;SDS011;4749;51.398;5.466;2023-02-28T14:17:03;3.27;;;1.50;;
9420;SDS011;4749;51.398;5.466;2023-02-28T14:19:36;2.37;;;1.77;;
9420;SDS011;4749;51.398;5.466;2023-02-28T14:29:59;3.53;;;2.27;;
9420;SDS011;4749;51.398;5.466;2023-02-28T14:32:54;3.37;;;2.00;;
9420;SDS011;4749;51.398;5.466;2023-02-28T14:35:45;2.90;;;2.03;;
9420;SDS011;4749;51.398;5.466;2023-02-28T14:39:45;2.60;;;2.00;;
9420;SDS011;4749;51.398;5.466;2023-02-28T14:41:57;2.50;;;1.90;;
9420;SDS011;4749;51.398;5.466;2023-02-28T14:44:29;2.30;;;2.10;;
9420;SDS011;4749;51.398;5.466;2023-02-28T14:46:57;3.27;;;1.80;;
9420;SDS011;4749;51.398;5.466;2023-02-28T14:49:35;2.97;;;1.80;;
9420;SDS011;4749;51.398;5.466;2023-02-28T14:54:36;2.80;;;2.13;;
9420;SDS011;4749;51.398;5.466;2023-02-28T14:57:05;4.07;;;2.13;;
9420;SDS011;4749;51.398;5.466;2023-02-28T14:59:46;4.03;;;2.40;;
9420;SDS011;4749;51.398;5.466;2023-02-28T15:02:24;2.97;;;2.03;;
9420;SDS011;4749;51.398;5.466;2023-02-28T15:04:56;3.27;;;2.10;;
9420;SDS011;4749;51.398;5.466;2023-02-28T15:07:26;2.80;;;2.10;;
9420;SDS011;4749;51.398;5.466;2023-02-28T15:12:54;2.83;;;2.10;;
9420;SDS011;4749;51.398;5.466;2023-02-28T15:15:50;2.80;;;2.20;;
9420;SDS011;4749;51.398;5.466;2023-02-28T15:18:48;3.07;;;1.87;;
9420;SDS011;4749;51.398;5.466;2023-02-28T15:24:07;4.93;;;2.40;;
9420;SDS011;4749;51.398;5.466;2023-02-28T15:26:54;2.70;;;2.20;;
9420;SDS011;4749;51.398;5.466;2023-02-28T15:29:26;2.93;;;2.00;;
9420;SDS011;4749;51.398;5.466;2023-02-28T15:32:04;3.83;;;2.30;;
9420;SDS011;4749;51.398;5.466;2023-02-28T15:34:38;2.83;;;2.00;;
9420;SDS011;4749;51.398;5.466;2023-02-28T15:37:26;2.80;;;1.93;;
9420;SDS011;4749;51.398;5.466;2023-02-28T15:45:49;2.57;;;1.93;;
9420;SDS011;4749;51.398;5.466;2023-02-28T15:50:53;2.63;;;1.80;;
9420;SDS011;4749;51.398;5.466;2023-02-28T15:53:27;2.80;;;1.97;;
9420;SDS011;4749;51.398;5.466;2023-02-28T15:56:02;2.50;;;1.77;;
9420;SDS011;4749;51.398;5.466;2023-02-28T15:58:33;3.43;;;1.80;;
9420;SDS011;4749;51.398;5.466;2023-02-28T16:03:57;3.53;;;2.20;;
9420;SDS011;4749;51.398;5.466;2023-02-28T16:09:26;2.70;;;1.87;;
9420;SDS011;4749;51.398;5.466;2023-02-28T16:11:54;2.47;;;1.67;;
9420;SDS011;4749;51.398;5.466;2023-02-28T16:14:26;2.00;;;1.80;;
9420;SDS011;4749;51.398;5.466;2023-02-28T16:16:57;2.40;;;2.13;;
9420;SDS011;4749;51.398;5.466;2023-02-28T16:19:31;5.43;;;2.17;;
9420;SDS011;4749;51.398;5.466;2023-02-28T16:22:00;2.47;;;1.80;;
9420;SDS011;4749;51.398;5.466;2023-02-28T16:24:27;2.73;;;1.73;;
9420;SDS011;4749;51.398;5.466;2023-02-28T16:26:55;3.73;;;1.90;;
9420;SDS011;4749;51.398;5.466;2023-02-28T16:29:25;3.50;;;1.83;;
9420;SDS011;4749;51.398;5.466;2023-02-28T16:31:58;2.03;;;1.63;;
9420;SDS011;4749;51.398;5.466;2023-02-28T16:34:26;6.33;;;2.17;;
9420;SDS011;4749;51.398;5.466;2023-02-28T16:36:54;2.63;;;2.03;;
9420;SDS011;4749;51.398;5.466;2023-02-28T16:39:21;3.27;;;2.10;;
9420;SDS011;4749;51.398;5.466;2023-02-28T16:41:51;4.83;;;2.00;;
9420;SDS011;4749;51.398;5.466;2023-02-28T16:44:32;2.50;;;2.00;;
9420;SDS011;4749;51.398;5.466;2023-02-28T16:47:02;2.40;;;1.80;;
9420;SDS011;4749;51.398;5.466;2023-02-28T16:49:30;3.27;;;2.30;;
9420;SDS011;4749;51.398;5.466;2023-02-28T16:51:58;2.80;;;2.00;;
9420;SDS011;4749;51.398;5.466;2023-02-28T16:54:25;5.57;;;2.20;;
9420;SDS011;4749;51.398;5.466;2023-02-28T16:56:52;3.43;;;2.00;;
9420;SDS011;4749;51.398;5.466;2023-02-28T16:59:23;2.50;;;1.97;;
9420;SDS011;4749;51.398;5.466;2023-02-28T17:01:52;2.77;;;2.00;;
9420;SDS011;4749;51.398;5.466;2023-02-28T17:04:25;2.80;;;2.17;;
9420;SDS011;4749;51.398;5.466;2023-02-28T17:06:53;4.27;;;2.20;;
9420;SDS011;4749;51.398;5.466;2023-02-28T17:09:21;3.23;;;2.23;;
9420;SDS011;4749;51.398;5.466;2023-02-28T17:12:02;3.97;;;2.10;;
9420;SDS011;4749;51.398;5.466;2023-02-28T17:14:29;6.03;;;2.33;;
9420;SDS011;4749;51.398;5.466;2023-02-28T17:16:56;3.67;;;2.20;;
9420;SDS011;4749;51.398;5.466;2023-02-28T17:19:26;3.23;;;2.07;;
9420;SDS011;4749;51.398;5.466;2023-02-28T17:21:54;3.33;;;1.93;;
9420;SDS011;4749;51.398;5.466;2023-02-28T17:24:21;3.47;;;2.17;;
9420;SDS011;4749;51.398;5.466;2023-02-28T17:26:56;3.67;;;2.23;;
9420;SDS011;4749;51.398;5.466;2023-02-28T17:29:24;3.60;;;1.90;;
9420;SDS011;4749;51.398;5.466;2023-02-28T17:31:51;3.17;;;1.97;;
9420;SDS011;4749;51.398;5.466;2023-02-28T17:34:20;6.67;;;3.40;;
9420;SDS011;4749;51.398;5.466;2023-02-28T17:36:48;6.47;;;3.73;;
9420;SDS011;4749;51.398;5.466;2023-02-28T17:39:18;5.87;;;3.63;;
9420;SDS011;4749;51.398;5.466;2023-02-28T17:41:52;5.13;;;3.20;;
9420;SDS011;4749;51.398;5.466;2023-02-28T17:44:24;5.73;;;3.40;;
9420;SDS011;4749;51.398;5.466;2023-02-28T17:46:54;6.60;;;3.90;;
9420;SDS011;4749;51.398;5.466;2023-02-28T17:49:22;6.67;;;4.30;;
9420;SDS011;4749;51.398;5.466;2023-02-28T17:51:53;5.83;;;4.23;;
9420;SDS011;4749;51.398;5.466;2023-02-28T17:54:33;6.73;;;4.60;;
9420;SDS011;4749;51.398;5.466;2023-02-28T17:57:44;4.63;;;4.13;;
9420;SDS011;4749;51.398;5.466;2023-02-28T18:01:21;5.10;;;3.57;;
9420;SDS011;4749;51.398;5.466;2023-02-28T18:04:04;4.60;;;3.30;;
9420;SDS011;4749;51.398;5.466;2023-02-28T18:07:14;4.53;;;3.23;;
9420;SDS011;4749;51.398;5.466;2023-02-28T18:09:57;4.57;;;3.47;;
9420;SDS011;4749;51.398;5.466;2023-02-28T18:12:29;6.17;;;3.40;;
9420;SDS011;4749;51.398;5.466;2023-02-28T18:15:26;3.10;;;2.80;;
9420;SDS011;4749;51.398;5.466;2023-02-28T18:18:16;4.90;;;3.00;;
9420;SDS011;4749;51.398;5.466;2023-02-28T18:20:44;5.50;;;3.20;;
9420;SDS011;4749;51.398;5.466;2023-02-28T18:23:17;4.13;;;3.33;;
9420;SDS011;4749;51.398;5.466;2023-02-28T18:25:53;6.87;;;3.43;;
9420;SDS011;4749;51.398;5.466;2023-02-28T18:28:28;6.57;;;3.20;;
9420;SDS011;4749;51.398;5.466;2023-02-28T18:31:09;5.50;;;3.40;;
9420;SDS011;4749;51.398;5.466;2023-02-28T18:33:47;4.17;;;2.70;;
9420;SDS011;4749;51.398;5.466;2023-02-28T18:36:42;5.20;;;3.17;;
9420;SDS011;4749;51.398;5.466;2023-02-28T18:39:38;3.97;;;2.90;;